sensor_id;sensor_type;location;lat;lon;timestamp;P1;durP1;ratioP1;P2;durP2;ratioP2
1829;SDS011;914;48.118;11.600;2023-03-01T00:01:07;17.27;;;12.73;;
1829;SDS011;914;48.118;11.600;2023-03-01T00:03:35;18.10;;;13.70;;
1829;SDS011;914;48.118;11.600;2023-03-01T00:06:01;17.60;;;13.33;;
1829;SDS011;914;48.118;11.600;2023-03-01T00:08:27;19.07;;;14.00;;
1829;SDS011;914;48.118;11.600;2023-03-01T00:13:55;18.90;;;13.70;;
1829;SDS011;914;48.118;11.600;2023-03-01T00:16:26;15.80;;;12.77;;
1829;SDS011;914;48.118;11.600;2023-03-01T00:18:54;17.03;;;12.67;;
1829;SDS011;914;48.118;11.600;2023-03-01T00:21:21;16.40;;;12.90;;
1829;SDS011;914;48.118;11.600;2023-03-01T00:23:47;18.27;;;13.77;;
1829;SDS011;914;48.118;11.600;2023-03-01T00:26:14;17.87;;;13.90;;
1829;SDS011;914;48.118;11.600;2023-03-01T00:28:41;20.90;;;13.73;;
1829;SDS011;914;48.118;11.600;2023-03-01T00:31:12;17.20;;;13.10;;
1829;SDS011;914;48.118;11.600;2023-03-01T00:33:40;16.90;;;12.73;;
1829;SDS011;914;48.118;11.600;2023-03-01T00:36:07;19.03;;;12.80;;
1829;SDS011;914;48.118;11.600;2023-03-01T00:38:35;17.70;;;14.13;;
1829;SDS011;914;48.118;11.600;2023-03-01T00:41:09;21.53;;;13.63;;
1829;SDS011;914;48.118;11.600;2023-03-01T00:43:36;18.17;;;13.20;;
1829;SDS011;914;48.118;11.600;2023-03-01T00:46:07;17.47;;;13.40;;
1829;SDS011;914;48.118;11.600;2023-03-01T00:48:34;19.97;;;12.77;;
1829;SDS011;914;48.118;11.600;2023-03-01T00:51:07;20.07;;;13.33;;
1829;SDS011;914;48.118;11.600;2023-03-01T00:53:51;18.43;;;13.77;;
1829;SDS011;914;48.118;11.600;2023-03-01T00:56:18;18.07;;;14.60;;
1829;SDS011;914;48.118;11.600;2023-03-01T00:58:44;18.77;;;13.90;;
1829;SDS011;914;48.118;11.600;2023-03-01T01:01:15;16.57;;;13.33;;
1829;SDS011;914;48.118;11.600;2023-03-01T01:04:04;17.57;;;13.67;;
1829;SDS011;914;48.118;11.600;2023-03-01T01:06:31;17.73;;;13.40;;
1829;SDS011;914;48.118;11.600;2023-03-01T01:08:59;20.23;;;13.57;;
1829;SDS011;914;48.118;11.600;2023-03-01T01:11:25;17.23;;;13.43;;
1829;SDS011;914;48.118;11.600;2023-03-01T01:13:52;17.80;;;12.73;;
1829;SDS011;914;48.118;11.600;2023-03-01T01:16:19;16.10;;;12.67;;
1829;SDS011;914;48.118;11.600;2023-03-01T01:18:46;18.80;;;13.57;;
1829;SDS011;914;48.118;11.600;2023-03-01T01:21:13;18.67;;;13.50;;
1829;SDS011;914;48.118;11.600;2023-03-01T01:23:41;16.13;;;13.53;;
1829;SDS011;914;48.118;11.600;2023-03-01T01:26:08;19.10;;;13.60;;
1829;SDS011;914;48.118;11.600;2023-03-01T01:28:36;18.90;;;13.90;;
1829;SDS011;914;48.118;11.600;2023-03-01T01:31:02;18.33;;;13.83;;
1829;SDS011;914;48.118;11.600;2023-03-01T01:33:28;17.10;;;13.63;;
1829;SDS011;914;48.118;11.600;2023-03-01T01:35:54;18.73;;;14.10;;
1829;SDS011;914;48.118;11.600;2023-03-01T01:38:20;18.03;;;12.80;;
1829;SDS011;914;48.118;11.600;2023-03-01T01:40:47;17.37;;;13.03;;
1829;SDS011;914;48.118;11.600;2023-03-01T01:43:28;19.83;;;13.93;;
1829;SDS011;914;48.118;11.600;2023-03-01T01:45:59;19.00;;;14.17;;
1829;SDS011;914;48.118;11.600;2023-03-01T01:48:29;17.80;;;12.63;;
1829;SDS011;914;48.118;11.600;2023-03-01T01:51:09;16.70;;;13.13;;
1829;SDS011;914;48.118;11.600;2023-03-01T01:53:38;18.07;;;13.93;;
1829;SDS011;914;48.118;11.600;2023-03-01T01:56:07;17.83;;;14.10;;
1829;SDS011;914;48.118;11.600;2023-03-01T01:58:35;20.83;;;14.40;;
1829;SDS011;914;48.118;11.600;2023-03-01T02:01:03;19.83;;;13.60;;
1829;SDS011;914;48.118;11.600;2023-03-01T02:03:29;16.53;;;13.20;;
1829;SDS011;914;48.118;11.600;2023-03-01T02:08:44;16.63;;;12.73;;
1829;SDS011;914;48.118;11.600;2023-03-01T02:11:12;21.23;;;13.07;;
1829;SDS011;914;48.118;11.600;2023-03-01T02:13:41;16.87;;;13.33;;
1829;SDS011;914;48.118;11.600;2023-03-01T02:16:08;18.73;;;14.07;;
1829;SDS011;914;48.118;11.600;2023-03-01T02:18:35;17.37;;;13.30;;
1829;SDS011;914;48.118;11.600;2023-03-01T02:23:44;18.90;;;14.00;;
1829;SDS011;914;48.118;11.600;2023-03-01T02:28:42;18.53;;;13.93;;
1829;SDS011;914;48.118;11.600;2023-03-01T02:31:10;18.13;;;14.10;;
1829;SDS011;914;48.118;11.600;2023-03-01T02:33:59;18.43;;;14.20;;
1829;SDS011;914;48.118;11.600;2023-03-01T02:36:30;17.70;;;13.53;;
1829;SDS011;914;48.118;11.600;2023-03-01T02:39:00;17.23;;;12.07;;
1829;SDS011;914;48.118;11.600;2023-03-01T02:41:28;22.03;;;13.07;;
1829;SDS011;914;48.118;11.600;2023-03-01T02:43:57;19.33;;;14.40;;
1829;SDS011;914;48.118;11.600;2023-03-01T02:46:24;17.97;;;13.53;;
1829;SDS011;914;48.118;11.600;2023-03-01T02:48:52;17.57;;;13.83;;
1829;SDS011;914;48.118;11.600;2023-03-01T02:54:21;18.53;;;13.47;;
1829;SDS011;914;48.118;11.600;2023-03-01T02:56:49;19.03;;;12.87;;
1829;SDS011;914;48.118;11.600;2023-03-01T02:59:16;17.10;;;13.23;;
1829;SDS011;914;48.118;11.600;2023-03-01T03:01:43;18.30;;;13.53;;
1829;SDS011;914;48.118;11.600;2023-03-01T03:04:12;16.87;;;13.27;;
1829;SDS011;914;48.118;11.600;2023-03-01T03:06:46;16.30;;;12.77;;
1829;SDS011;914;48.118;11.600;2023-03-01T03:09:13;17.30;;;13.17;;
1829;SDS011;914;48.118;11.600;2023-03-01T03:11:40;17.77;;;13.13;;
1829;SDS011;914;48.118;11.600;2023-03-01T03:14:07;16.50;;;13.20;;
1829;SDS011;914;48.118;11.600;2023-03-01T03:16:44;16.77;;;13.00;;
1829;SDS011;914;48.118;11.600;2023-03-01T03:19:12;17.50;;;13.77;;
1829;SDS011;914;48.118;11.600;2023-03-01T03:21:38;16.83;;;13.23;;
1829;SDS011;914;48.118;11.600;2023-03-01T03:24:04;18.53;;;13.20;;
1829;SDS011;914;48.118;11.600;2023-03-01T03:26:30;18.70;;;13.53;;
1829;SDS011;914;48.118;11.600;2023-03-01T03:28:56;15.80;;;12.93;;
1829;SDS011;914;48.118;11.600;2023-03-01T03:31:22;17.40;;;13.20;;
1829;SDS011;914;48.118;11.600;2023-03-01T03:33:48;17.27;;;13.17;;
1829;SDS011;914;48.118;11.600;2023-03-01T03:36:17;17.60;;;13.77;;
1829;SDS011;914;48.118;11.600;2023-03-01T03:38:44;18.63;;;13.90;;
1829;SDS011;914;48.118;11.600;2023-03-01T03:41:14;19.97;;;13.77;;
1829;SDS011;914;48.118;11.600;2023-03-01T03:43:40;16.57;;;13.07;;
1829;SDS011;914;48.118;11.600;2023-03-01T03:46:08;17.70;;;13.47;;
1829;SDS011;914;48.118;11.600;2023-03-01T03:48:36;19.87;;;14.13;;
1829;SDS011;914;48.118;11.600;2023-03-01T03:51:03;20.53;;;13.90;;
1829;SDS011;914;48.118;11.600;2023-03-01T03:53:30;18.23;;;14.03;;
1829;SDS011;914;48.118;11.600;2023-03-01T03:55:57;19.20;;;14.10;;
1829;SDS011;914;48.118;11.600;2023-03-01T03:58:23;17.03;;;13.00;;
1829;SDS011;914;48.118;11.600;2023-03-01T04:00:54;18.93;;;13.73;;
1829;SDS011;914;48.118;11.600;2023-03-01T04:03:21;18.27;;;12.67;;
1829;SDS011;914;48.118;11.600;2023-03-01T04:05:48;18.33;;;13.27;;
1829;SDS011;914;48.118;11.600;2023-03-01T04:08:18;19.37;;;14.40;;
1829;SDS011;914;48.118;11.600;2023-03-01T04:10:48;17.80;;;12.60;;
1829;SDS011;914;48.118;11.600;2023-03-01T04:13:20;22.03;;;14.03;;
1829;SDS011;914;48.118;11.600;2023-03-01T04:15:50;20.20;;;14.57;;
1829;SDS011;914;48.118;11.600;2023-03-01T04:18:18;21.80;;;14.27;;
1829;SDS011;914;48.118;11.600;2023-03-01T04:20:45;18.73;;;13.90;;
1829;SDS011;914;48.118;11.600;2023-03-01T04:23:12;17.97;;;14.30;;
1829;SDS011;914;48.118;11.600;2023-03-01T04:28:36;18.23;;;13.80;;
1829;SDS011;914;48.118;11.600;2023-03-01T04:31:11;20.13;;;14.20;;
1829;SDS011;914;48.118;11.600;2023-03-01T04:33:43;19.47;;;14.30;;
1829;SDS011;914;48.118;11.600;2023-03-01T04:36:11;19.53;;;13.53;;
1829;SDS011;914;48.118;11.600;2023-03-01T04:38:38;17.57;;;13.40;;
1829;SDS011;914;48.118;11.600;2023-03-01T04:41:05;18.50;;;14.90;;
1829;SDS011;914;48.118;11.600;2023-03-01T04:43:32;17.17;;;14.03;;
1829;SDS011;914;48.118;11.600;2023-03-01T04:46:03;19.50;;;15.17;;
1829;SDS011;914;48.118;11.600;2023-03-01T04:48:32;18.10;;;13.90;;
1829;SDS011;914;48.118;11.600;2023-03-01T04:50:58;20.50;;;14.97;;
1829;SDS011;914;48.118;11.600;2023-03-01T04:53:24;19.87;;;14.80;;
1829;SDS011;914;48.118;11.600;2023-03-01T04:55:51;17.27;;;14.13;;
1829;SDS011;914;48.118;11.600;2023-03-01T04:58:16;20.27;;;15.40;;
1829;SDS011;914;48.118;11.600;2023-03-01T05:00:42;20.57;;;14.73;;
1829;SDS011;914;48.118;11.600;2023-03-01T05:03:08;17.90;;;10.77;;
1829;SDS011;914;48.118;11.600;2023-03-01T05:05:35;16.03;;;12.57;;
1829;SDS011;914;48.118;11.600;2023-03-01T05:08:04;20.20;;;13.90;;
1829;SDS011;914;48.118;11.600;2023-03-01T05:10:32;20.30;;;14.63;;
1829;SDS011;914;48.118;11.600;2023-03-01T05:13:00;21.87;;;14.80;;
1829;SDS011;914;48.118;11.600;2023-03-01T05:15:27;20.03;;;14.63;;
1829;SDS011;914;48.118;11.600;2023-03-01T05:17:54;17.87;;;13.97;;
1829;SDS011;914;48.118;11.600;2023-03-01T05:20:23;18.77;;;13.80;;
1829;SDS011;914;48.118;11.600;2023-03-01T05:22:50;19.40;;;14.60;;
1829;SDS011;914;48.118;11.600;2023-03-01T05:25:16;21.07;;;15.73;;
1829;SDS011;914;48.118;11.600;2023-03-01T05:27:42;20.37;;;15.27;;
1829;SDS011;914;48.118;11.600;2023-03-01T05:30:08;22.47;;;15.43;;
1829;SDS011;914;48.118;11.600;2023-03-01T05:32:41;19.17;;;14.27;;
1829;SDS011;914;48.118;11.600;2023-03-01T05:35:10;18.17;;;14.13;;
1829;SDS011;914;48.118;11.600;2023-03-01T05:37:40;20.33;;;14.73;;
1829;SDS011;914;48.118;11.600;2023-03-01T05:40:12;18.47;;;14.57;;
1829;SDS011;914;48.118;11.600;2023-03-01T05:42:47;17.90;;;14.17;;
1829;SDS011;914;48.118;11.600;2023-03-01T05:45:15;20.83;;;14.50;;
1829;SDS011;914;48.118;11.600;2023-03-01T05:47:42;19.97;;;15.17;;
1829;SDS011;914;48.118;11.600;2023-03-01T05:50:11;18.83;;;13.97;;
1829;SDS011;914;48.118;11.600;2023-03-01T05:52:52;21.53;;;14.97;;
1829;SDS011;914;48.118;11.600;2023-03-01T05:55:23;17.87;;;14.03;;
1829;SDS011;914;48.118;11.600;2023-03-01T05:57:49;19.10;;;14.47;;
1829;SDS011;914;48.118;11.600;2023-03-01T06:00:18;19.80;;;14.87;;
1829;SDS011;914;48.118;11.600;2023-03-01T06:02:47;21.20;;;14.20;;
1829;SDS011;914;48.118;11.600;2023-03-01T06:05:13;20.70;;;15.00;;
1829;SDS011;914;48.118;11.600;2023-03-01T06:07:39;22.60;;;15.70;;
1829;SDS011;914;48.118;11.600;2023-03-01T06:10:06;21.23;;;14.73;;
1829;SDS011;914;48.118;11.600;2023-03-01T06:12:33;21.20;;;14.83;;
1829;SDS011;914;48.118;11.600;2023-03-01T06:15:00;19.13;;;14.53;;
1829;SDS011;914;48.118;11.600;2023-03-01T06:17:28;18.63;;;13.97;;
1829;SDS011;914;48.118;11.600;2023-03-01T06:19:55;20.60;;;15.43;;
1829;SDS011;914;48.118;11.600;2023-03-01T06:22:21;20.37;;;14.90;;
1829;SDS011;914;48.118;11.600;2023-03-01T06:24:46;20.27;;;13.57;;
1829;SDS011;914;48.118;11.600;2023-03-01T06:27:12;19.37;;;14.40;;
1829;SDS011;914;48.118;11.600;2023-03-01T06:29:38;20.40;;;15.07;;
1829;SDS011;914;48.118;11.600;2023-03-01T06:32:03;22.33;;;14.43;;
1829;SDS011;914;48.118;11.600;2023-03-01T06:34:30;19.27;;;14.17;;
1829;SDS011;914;48.118;11.600;2023-03-01T06:36:56;20.57;;;15.10;;
1829;SDS011;914;48.118;11.600;2023-03-01T06:39:21;20.17;;;13.90;;
1829;SDS011;914;48.118;11.600;2023-03-01T06:41:47;21.40;;;14.67;;
1829;SDS011;914;48.118;11.600;2023-03-01T06:44:13;23.53;;;14.97;;
1829;SDS011;914;48.118;11.600;2023-03-01T06:46:39;19.67;;;13.93;;
1829;SDS011;914;48.118;11.600;2023-03-01T06:49:05;19.57;;;15.47;;
1829;SDS011;914;48.118;11.600;2023-03-01T06:51:34;21.23;;;15.57;;
1829;SDS011;914;48.118;11.600;2023-03-01T06:54:06;22.00;;;15.03;;
1829;SDS011;914;48.118;11.600;2023-03-01T06:56:32;26.80;;;15.23;;
1829;SDS011;914;48.118;11.600;2023-03-01T06:58:58;21.07;;;15.23;;
1829;SDS011;914;48.118;11.600;2023-03-01T07:01:23;17.67;;;14.10;;
1829;SDS011;914;48.118;11.600;2023-03-01T07:03:49;24.73;;;15.37;;
1829;SDS011;914;48.118;11.600;2023-03-01T07:06:14;17.93;;;14.23;;
1829;SDS011;914;48.118;11.600;2023-03-01T07:08:40;20.77;;;15.53;;
1829;SDS011;914;48.118;11.600;2023-03-01T07:11:06;25.20;;;15.00;;
1829;SDS011;914;48.118;11.600;2023-03-01T07:13:32;24.23;;;16.03;;
1829;SDS011;914;48.118;11.600;2023-03-01T07:15:58;22.13;;;15.53;;
1829;SDS011;914;48.118;11.600;2023-03-01T07:18:26;21.20;;;15.40;;
1829;SDS011;914;48.118;11.600;2023-03-01T07:20:52;24.10;;;15.33;;
1829;SDS011;914;48.118;11.600;2023-03-01T07:23:18;19.77;;;14.30;;
1829;SDS011;914;48.118;11.600;2023-03-01T07:25:44;25.27;;;15.20;;
1829;SDS011;914;48.118;11.600;2023-03-01T07:28:15;21.77;;;14.20;;
1829;SDS011;914;48.118;11.600;2023-03-01T07:30:41;22.50;;;15.63;;
1829;SDS011;914;48.118;11.600;2023-03-01T07:33:07;20.83;;;14.80;;
1829;SDS011;914;48.118;11.600;2023-03-01T07:35:33;22.80;;;15.77;;
1829;SDS011;914;48.118;11.600;2023-03-01T07:37:58;24.67;;;15.67;;
1829;SDS011;914;48.118;11.600;2023-03-01T07:40:24;20.70;;;14.10;;
1829;SDS011;914;48.118;11.600;2023-03-01T07:42:54;25.33;;;14.93;;
1829;SDS011;914;48.118;11.600;2023-03-01T07:45:21;20.03;;;14.73;;
1829;SDS011;914;48.118;11.600;2023-03-01T07:47:46;18.47;;;14.70;;
1829;SDS011;914;48.118;11.600;2023-03-01T07:50:12;19.47;;;15.00;;
1829;SDS011;914;48.118;11.600;2023-03-01T07:52:38;23.03;;;15.10;;
1829;SDS011;914;48.118;11.600;2023-03-01T07:55:04;20.80;;;14.93;;
1829;SDS011;914;48.118;11.600;2023-03-01T07:57:30;20.80;;;15.07;;
1829;SDS011;914;48.118;11.600;2023-03-01T07:59:56;18.97;;;14.63;;
1829;SDS011;914;48.118;11.600;2023-03-01T08:02:22;24.83;;;15.70;;
1829;SDS011;914;48.118;11.600;2023-03-01T08:04:48;22.07;;;16.00;;
1829;SDS011;914;48.118;11.600;2023-03-01T08:07:13;20.97;;;15.20;;
1829;SDS011;914;48.118;11.600;2023-03-01T08:09:39;22.50;;;14.70;;
1829;SDS011;914;48.118;11.600;2023-03-01T08:12:05;21.07;;;15.37;;
1829;SDS011;914;48.118;11.600;2023-03-01T08:14:31;28.23;;;14.53;;
1829;SDS011;914;48.118;11.600;2023-03-01T08:16:57;21.10;;;15.47;;
1829;SDS011;914;48.118;11.600;2023-03-01T08:19:23;21.30;;;15.03;;
1829;SDS011;914;48.118;11.600;2023-03-01T08:21:49;22.17;;;15.17;;
1829;SDS011;914;48.118;11.600;2023-03-01T08:24:14;22.07;;;15.17;;
1829;SDS011;914;48.118;11.600;2023-03-01T08:26:40;20.60;;;15.37;;
1829;SDS011;914;48.118;11.600;2023-03-01T08:29:06;20.43;;;14.73;;
1829;SDS011;914;48.118;11.600;2023-03-01T08:31:34;23.07;;;15.23;;
1829;SDS011;914;48.118;11.600;2023-03-01T08:34:03;24.97;;;15.77;;
1829;SDS011;914;48.118;11.600;2023-03-01T08:36:31;21.20;;;14.70;;
1829;SDS011;914;48.118;11.600;2023-03-01T08:38:59;26.60;;;16.07;;
1829;SDS011;914;48.118;11.600;2023-03-01T08:41:25;22.13;;;16.07;;
1829;SDS011;914;48.118;11.600;2023-03-01T08:43:51;19.93;;;15.37;;
1829;SDS011;914;48.118;11.600;2023-03-01T08:46:17;18.53;;;13.77;;
1829;SDS011;914;48.118;11.600;2023-03-01T08:48:43;22.57;;;15.43;;
1829;SDS011;914;48.118;11.600;2023-03-01T08:51:13;20.83;;;14.77;;
1829;SDS011;914;48.118;11.600;2023-03-01T08:53:40;23.87;;;15.50;;
1829;SDS011;914;48.118;11.600;2023-03-01T08:56:07;22.90;;;15.50;;
1829;SDS011;914;48.118;11.600;2023-03-01T08:58:34;21.07;;;15.20;;
1829;SDS011;914;48.118;11.600;2023-03-01T09:01:00;24.77;;;15.23;;
1829;SDS011;914;48.118;11.600;2023-03-01T09:03:26;21.47;;;15.63;;
1829;SDS011;914;48.118;11.600;2023-03-01T09:05:52;20.27;;;14.43;;
1829;SDS011;914;48.118;11.600;2023-03-01T09:08:18;24.60;;;15.40;;
1829;SDS011;914;48.118;11.600;2023-03-01T09:10:45;23.97;;;16.07;;
1829;SDS011;914;48.118;11.600;2023-03-01T09:13:11;21.13;;;15.60;;
1829;SDS011;914;48.118;11.600;2023-03-01T09:15:37;23.10;;;15.77;;
1829;SDS011;914;48.118;11.600;2023-03-01T09:18:03;21.73;;;15.40;;
1829;SDS011;914;48.118;11.600;2023-03-01T09:20:30;21.13;;;15.33;;
1829;SDS011;914;48.118;11.600;2023-03-01T09:22:56;21.57;;;15.57;;
1829;SDS011;914;48.118;11.600;2023-03-01T09:25:22;19.73;;;15.23;;
1829;SDS011;914;48.118;11.600;2023-03-01T09:27:52;22.00;;;15.53;;
1829;SDS011;914;48.118;11.600;2023-03-01T09:30:19;26.37;;;16.53;;
1829;SDS011;914;48.118;11.600;2023-03-01T09:32:45;21.67;;;15.43;;
1829;SDS011;914;48.118;11.600;2023-03-01T09:35:11;23.03;;;15.50;;
1829;SDS011;914;48.118;11.600;2023-03-01T09:37:38;26.70;;;15.67;;
1829;SDS011;914;48.118;11.600;2023-03-01T09:40:09;19.20;;;15.03;;
1829;SDS011;914;48.118;11.600;2023-03-01T09:42:55;21.67;;;15.67;;
1829;SDS011;914;48.118;11.600;2023-03-01T09:47:58;22.13;;;15.40;;
1829;SDS011;914;48.118;11.600;2023-03-01T09:50:26;22.43;;;16.47;;
1829;SDS011;914;48.118;11.600;2023-03-01T09:58:25;23.90;;;15.90;;
1829;SDS011;914;48.118;11.600;2023-03-01T10:01:11;22.60;;;15.13;;
1829;SDS011;914;48.118;11.600;2023-03-01T10:04:01;23.47;;;16.00;;
1829;SDS011;914;48.118;11.600;2023-03-01T10:06:51;19.50;;;15.57;;
1829;SDS011;914;48.118;11.600;2023-03-01T10:09:36;21.70;;;15.50;;
1829;SDS011;914;48.118;11.600;2023-03-01T10:12:11;27.70;;;15.43;;
1829;SDS011;914;48.118;11.600;2023-03-01T10:14:53;23.27;;;15.80;;
1829;SDS011;914;48.118;11.600;2023-03-01T10:17:25;23.33;;;15.70;;
1829;SDS011;914;48.118;11.600;2023-03-01T10:20:09;23.70;;;15.47;;
1829;SDS011;914;48.118;11.600;2023-03-01T10:22:47;19.90;;;15.23;;
1829;SDS011;914;48.118;11.600;2023-03-01T10:28:25;22.20;;;15.63;;
1829;SDS011;914;48.118;11.600;2023-03-01T10:30:56;21.30;;;14.93;;
1829;SDS011;914;48.118;11.600;2023-03-01T10:33:25;21.47;;;16.00;;
1829;SDS011;914;48.118;11.600;2023-03-01T10:35:55;24.77;;;17.40;;
1829;SDS011;914;48.118;11.600;2023-03-01T10:38:21;22.70;;;15.77;;
1829;SDS011;914;48.118;11.600;2023-03-01T10:40:57;27.17;;;16.80;;
1829;SDS011;914;48.118;11.600;2023-03-01T10:43:44;24.60;;;16.40;;
1829;SDS011;914;48.118;11.600;2023-03-01T10:49:07;25.00;;;15.83;;
1829;SDS011;914;48.118;11.600;2023-03-01T10:51:40;22.87;;;14.63;;
1829;SDS011;914;48.118;11.600;2023-03-01T10:54:17;27.40;;;16.03;;
1829;SDS011;914;48.118;11.600;2023-03-01T10:56:51;21.77;;;15.67;;
1829;SDS011;914;48.118;11.600;2023-03-01T10:59:21;20.87;;;16.43;;
1829;SDS011;914;48.118;11.600;2023-03-01T11:02:04;24.30;;;16.20;;
1829;SDS011;914;48.118;11.600;2023-03-01T11:07:58;22.60;;;15.27;;
1829;SDS011;914;48.118;11.600;2023-03-01T11:12:52;21.43;;;16.83;;
1829;SDS011;914;48.118;11.600;2023-03-01T11:15:26;19.17;;;15.27;;
1829;SDS011;914;48.118;11.600;2023-03-01T11:17:53;21.07;;;16.63;;
1829;SDS011;914;48.118;11.600;2023-03-01T11:20:36;21.83;;;16.37;;
1829;SDS011;914;48.118;11.600;2023-03-01T11:23:04;21.17;;;15.63;;
1829;SDS011;914;48.118;11.600;2023-03-01T11:25:36;20.80;;;15.90;;
1829;SDS011;914;48.118;11.600;2023-03-01T11:28:05;22.07;;;15.47;;
1829;SDS011;914;48.118;11.600;2023-03-01T11:33:13;22.93;;;16.63;;
1829;SDS011;914;48.118;11.600;2023-03-01T11:38:27;24.70;;;15.97;;
1829;SDS011;914;48.118;11.600;2023-03-01T11:41:00;22.77;;;16.50;;
1829;SDS011;914;48.118;11.600;2023-03-01T12:11:20;18.33;;;15.83;;
1829;SDS011;914;48.118;11.600;2023-03-01T12:14:00;18.43;;;15.27;;
1829;SDS011;914;48.118;11.600;2023-03-01T12:17:03;18.17;;;15.40;;
1829;SDS011;914;48.118;11.600;2023-03-01T12:19:42;22.30;;;16.77;;
1829;SDS011;914;48.118;11.600;2023-03-01T12:27:51;19.00;;;14.97;;
1829;SDS011;914;48.118;11.600;2023-03-01T12:36:05;20.57;;;15.53;;
1829;SDS011;914;48.118;11.600;2023-03-01T12:38:50;19.00;;;15.50;;
1829;SDS011;914;48.118;11.600;2023-03-01T12:41:53;19.67;;;15.67;;
1829;SDS011;914;48.118;11.600;2023-03-01T12:44:57;18.90;;;14.57;;
1829;SDS011;914;48.118;11.600;2023-03-01T12:50:42;17.13;;;14.63;;
1829;SDS011;914;48.118;11.600;2023-03-01T12:56:39;24.63;;;15.73;;
1829;SDS011;914;48.118;11.600;2023-03-01T13:01:40;16.43;;;14.67;;
1829;SDS011;914;48.118;11.600;2023-03-01T13:06:41;16.83;;;15.03;;
1829;SDS011;914;48.118;11.600;2023-03-01T13:17:48;20.00;;;16.17;;
1829;SDS011;914;48.118;11.600;2023-03-01T13:20:23;21.80;;;17.63;;
1829;SDS011;914;48.118;11.600;2023-03-01T13:23:00;20.07;;;16.30;;
1829;SDS011;914;48.118;11.600;2023-03-01T13:25:31;19.10;;;15.70;;
1829;SDS011;914;48.118;11.600;2023-03-01T13:33:41;24.53;;;16.17;;
1829;SDS011;914;48.118;11.600;2023-03-01T13:36:09;19.53;;;15.43;;
1829;SDS011;914;48.118;11.600;2023-03-01T13:38:41;21.23;;;16.57;;
1829;SDS011;914;48.118;11.600;2023-03-01T13:44:13;18.90;;;15.80;;
1829;SDS011;914;48.118;11.600;2023-03-01T13:46:47;22.63;;;16.43;;
1829;SDS011;914;48.118;11.600;2023-03-01T13:49:16;19.17;;;16.10;;
1829;SDS011;914;48.118;11.600;2023-03-01T13:51:48;19.37;;;15.90;;
1829;SDS011;914;48.118;11.600;2023-03-01T13:54:15;17.87;;;15.57;;
1829;SDS011;914;48.118;11.600;2023-03-01T13:56:44;21.07;;;15.77;;
1829;SDS011;914;48.118;11.600;2023-03-01T13:59:17;24.53;;;16.53;;
1829;SDS011;914;48.118;11.600;2023-03-01T14:01:51;21.40;;;16.30;;
1829;SDS011;914;48.118;11.600;2023-03-01T14:04:26;20.30;;;16.37;;
1829;SDS011;914;48.118;11.600;2023-03-01T14:07:13;19.00;;;15.33;;
1829;SDS011;914;48.118;11.600;2023-03-01T14:10:07;22.30;;;16.10;;
1829;SDS011;914;48.118;11.600;2023-03-01T14:12:48;18.27;;;16.10;;
1829;SDS011;914;48.118;11.600;2023-03-01T14:15:26;21.50;;;16.37;;
1829;SDS011;914;48.118;11.600;2023-03-01T14:18:03;21.07;;;17.00;;
1829;SDS011;914;48.118;11.600;2023-03-01T14:20:33;19.40;;;15.40;;
1829;SDS011;914;48.118;11.600;2023-03-01T14:23:12;21.73;;;16.97;;
1829;SDS011;914;48.118;11.600;2023-03-01T14:25:45;24.00;;;16.50;;
1829;SDS011;914;48.118;11.600;2023-03-01T14:28:17;23.20;;;15.90;;
1829;SDS011;914;48.118;11.600;2023-03-01T14:30:48;22.33;;;15.23;;
1829;SDS011;914;48.118;11.600;2023-03-01T14:33:20;18.97;;;15.63;;
1829;SDS011;914;48.118;11.600;2023-03-01T14:35:52;22.17;;;16.30;;
1829;SDS011;914;48.118;11.600;2023-03-01T14:38:38;21.90;;;15.67;;
1829;SDS011;914;48.118;11.600;2023-03-01T14:41:07;19.57;;;16.03;;
1829;SDS011;914;48.118;11.600;2023-03-01T14:43:45;23.23;;;16.33;;
1829;SDS011;914;48.118;11.600;2023-03-01T14:46:26;18.83;;;15.10;;
1829;SDS011;914;48.118;11.600;2023-03-01T14:49:24;21.30;;;15.70;;
1829;SDS011;914;48.118;11.600;2023-03-01T14:51:52;19.83;;;15.40;;
1829;SDS011;914;48.118;11.600;2023-03-01T14:54:26;16.47;;;14.33;;
1829;SDS011;914;48.118;11.600;2023-03-01T14:56:58;20.70;;;15.83;;
1829;SDS011;914;48.118;11.600;2023-03-01T14:59:25;19.33;;;14.97;;
1829;SDS011;914;48.118;11.600;2023-03-01T15:01:51;19.30;;;14.77;;
1829;SDS011;914;48.118;11.600;2023-03-01T15:04:20;22.33;;;14.83;;
1829;SDS011;914;48.118;11.600;2023-03-01T15:06:47;18.47;;;14.97;;
1829;SDS011;914;48.118;11.600;2023-03-01T15:09:16;17.60;;;14.37;;
1829;SDS011;914;48.118;11.600;2023-03-01T15:11:43;22.93;;;14.87;;
1829;SDS011;914;48.118;11.600;2023-03-01T15:14:29;18.87;;;15.40;;
1829;SDS011;914;48.118;11.600;2023-03-01T15:20:01;18.37;;;13.83;;
1829;SDS011;914;48.118;11.600;2023-03-01T15:22:29;19.20;;;14.80;;
1829;SDS011;914;48.118;11.600;2023-03-01T15:24:55;17.77;;;14.50;;
1829;SDS011;914;48.118;11.600;2023-03-01T15:27:24;16.87;;;14.27;;
1829;SDS011;914;48.118;11.600;2023-03-01T15:29:53;21.57;;;14.27;;
1829;SDS011;914;48.118;11.600;2023-03-01T15:32:32;18.57;;;14.07;;
1829;SDS011;914;48.118;11.600;2023-03-01T15:35:00;20.37;;;13.77;;
1829;SDS011;914;48.118;11.600;2023-03-01T15:37:47;18.27;;;14.27;;
1829;SDS011;914;48.118;11.600;2023-03-01T15:42:45;18.23;;;13.67;;
1829;SDS011;914;48.118;11.600;2023-03-01T15:45:21;18.00;;;14.60;;
1829;SDS011;914;48.118;11.600;2023-03-01T15:47:50;17.03;;;13.10;;
1829;SDS011;914;48.118;11.600;2023-03-01T15:50:31;20.67;;;14.20;;
1829;SDS011;914;48.118;11.600;2023-03-01T15:52:59;20.57;;;14.43;;
1829;SDS011;914;48.118;11.600;2023-03-01T15:55:27;19.63;;;14.30;;
1829;SDS011;914;48.118;11.600;2023-03-01T15:58:14;20.90;;;14.00;;
1829;SDS011;914;48.118;11.600;2023-03-01T16:00:43;16.93;;;13.63;;
1829;SDS011;914;48.118;11.600;2023-03-01T16:03:10;19.03;;;14.10;;
1829;SDS011;914;48.118;11.600;2023-03-01T16:05:36;17.40;;;13.67;;
1829;SDS011;914;48.118;11.600;2023-03-01T16:08:03;17.03;;;14.23;;
1829;SDS011;914;48.118;11.600;2023-03-01T16:10:31;20.33;;;13.40;;
1829;SDS011;914;48.118;11.600;2023-03-01T16:12:58;18.83;;;13.60;;
1829;SDS011;914;48.118;11.600;2023-03-01T16:15:27;16.13;;;14.07;;
1829;SDS011;914;48.118;11.600;2023-03-01T16:17:55;20.93;;;13.67;;
1829;SDS011;914;48.118;11.600;2023-03-01T16:20:23;18.17;;;13.50;;
1829;SDS011;914;48.118;11.600;2023-03-01T16:22:49;21.07;;;15.00;;
1829;SDS011;914;48.118;11.600;2023-03-01T16:25:17;18.37;;;14.53;;
1829;SDS011;914;48.118;11.600;2023-03-01T16:27:45;21.07;;;14.40;;
1829;SDS011;914;48.118;11.600;2023-03-01T16:30:12;18.03;;;14.57;;
1829;SDS011;914;48.118;11.600;2023-03-01T16:32:44;19.13;;;14.40;;
1829;SDS011;914;48.118;11.600;2023-03-01T16:35:11;18.13;;;14.73;;
1829;SDS011;914;48.118;11.600;2023-03-01T16:37:38;16.70;;;13.37;;
1829;SDS011;914;48.118;11.600;2023-03-01T16:40:17;20.47;;;14.33;;
1829;SDS011;914;48.118;11.600;2023-03-01T16:42:46;21.87;;;14.63;;
1829;SDS011;914;48.118;11.600;2023-03-01T16:45:12;20.43;;;14.67;;
1829;SDS011;914;48.118;11.600;2023-03-01T16:47:41;21.23;;;14.83;;
1829;SDS011;914;48.118;11.600;2023-03-01T16:50:08;21.13;;;14.50;;
1829;SDS011;914;48.118;11.600;2023-03-01T16:52:34;17.73;;;13.90;;
1829;SDS011;914;48.118;11.600;2023-03-01T16:55:00;19.70;;;15.03;;
1829;SDS011;914;48.118;11.600;2023-03-01T16:57:27;18.90;;;14.33;;
1829;SDS011;914;48.118;11.600;2023-03-01T16:59:52;21.97;;;13.67;;